createdAt,value
2019-02-23T00:00:36.457Z,24.43
2019-02-23T00:03:11.481Z,22.90
2019-02-23T00:05:44.359Z,24.40
2019-02-23T00:08:17.202Z,20.47
2019-02-23T00:10:50.552Z,25.13
2019-02-23T00:13:23.503Z,24.27
2019-02-23T00:15:56.392Z,24.47
2019-02-23T00:18:29.355Z,21.27
2019-02-23T00:21:02.350Z,24.70
2019-02-23T00:23:35.261Z,24.30
2019-02-23T00:26:08.363Z,25.73
2019-02-23T00:28:41.405Z,22.03
2019-02-23T00:31:14.621Z,23.37
2019-02-23T00:33:47.530Z,24.07
2019-02-23T00:36:20.423Z,24.50
2019-02-23T00:38:53.253Z,27.83
2019-02-23T00:41:26.048Z,29.33
2019-02-23T00:43:58.832Z,24.90
2019-02-23T00:46:31.886Z,24.50
2019-02-23T00:49:04.695Z,29.43
2019-02-23T00:51:37.762Z,27.57
2019-02-23T00:54:10.543Z,25.03
2019-02-23T00:56:43.467Z,23.80
2019-02-23T00:59:16.621Z,24.17
2019-02-23T01:01:49.656Z,25.03
2019-02-23T01:04:22.402Z,26.20
2019-02-23T01:06:55.686Z,23.60
2019-02-23T01:09:28.728Z,25.30
2019-02-23T01:12:01.713Z,26.67
2019-02-23T01:14:35.087Z,25.83
2019-02-23T01:17:08.217Z,24.10
2019-02-23T01:19:47.846Z,24.10
2019-02-23T01:22:16.019Z,24.40
2019-02-23T01:24:48.862Z,27.00
2019-02-23T01:27:21.736Z,27.40
2019-02-23T01:29:54.821Z,27.13
2019-02-23T01:32:27.617Z,27.70
2019-02-23T01:35:00.521Z,27.37
2019-02-23T01:37:33.261Z,28.17
2019-02-23T01:40:08.437Z,30.33
2019-02-23T01:42:41.294Z,25.27
2019-02-23T01:45:14.298Z,28.03
2019-02-23T01:47:47.175Z,27.73
2019-02-23T01:50:20.159Z,26.77
2019-02-23T01:52:53.054Z,29.20
2019-02-23T01:55:26.002Z,30.23
2019-02-23T01:57:58.803Z,30.30
2019-02-23T02:00:32.948Z,31.83
2019-02-23T02:03:06.227Z,31.17
2019-02-23T02:05:39.303Z,29.27
2019-02-23T02:08:12.442Z,31.23
2019-02-23T02:10:45.569Z,29.50
2019-02-23T02:13:18.744Z,27.43
2019-02-23T02:15:51.615Z,21.37
2019-02-23T02:18:24.483Z,32.07
2019-02-23T02:20:58.238Z,29.83
2019-02-23T02:23:31.120Z,33.33
2019-02-23T02:26:04.017Z,33.10
2019-02-23T02:28:36.802Z,31.53
2019-02-23T02:31:09.679Z,32.47
2019-02-23T02:34:21.708Z,31.63
2019-02-23T02:36:54.702Z,30.40
2019-02-23T02:39:27.968Z,36.77
2019-02-23T02:42:00.977Z,31.80
2019-02-23T02:44:34.194Z,33.20
2019-02-23T02:47:07.051Z,32.27
2019-02-23T02:49:40.023Z,34.20
2019-02-23T02:52:32.338Z,37.17
2019-02-23T02:55:06.839Z,34.53
2019-02-23T02:57:39.877Z,31.93
2019-02-23T03:00:12.915Z,32.10
2019-02-23T03:02:46.075Z,33.77
2019-02-23T03:05:19.156Z,34.47
2019-02-23T03:07:52.021Z,34.10
2019-02-23T03:10:25.209Z,32.97
2019-02-23T03:12:58.580Z,34.80
2019-02-23T03:15:31.717Z,34.63
2019-02-23T03:18:04.688Z,33.80
2019-02-23T03:20:37.620Z,39.30
2019-02-23T03:23:10.380Z,35.13
2019-02-23T03:25:43.263Z,35.47
2019-02-23T03:28:16.329Z,38.03
2019-02-23T03:30:49.107Z,40.10
2019-02-23T03:33:22.139Z,38.43
2019-02-23T03:35:55.139Z,35.53
2019-02-23T03:38:27.988Z,38.67
2019-02-23T03:41:01.543Z,36.87
2019-02-23T03:43:34.389Z,37.47
2019-02-23T03:46:07.353Z,38.63
2019-02-23T03:48:40.338Z,39.13
2019-02-23T03:51:13.233Z,37.23
2019-02-23T03:53:46.225Z,37.70
2019-02-23T03:56:19.200Z,37.73
2019-02-23T03:58:52.170Z,36.83
2019-02-23T04:01:25.278Z,40.63
2019-02-23T04:03:58.145Z,42.40
2019-02-23T04:06:31.136Z,40.30
2019-02-23T04:09:05.111Z,39.13
2019-02-23T04:11:39.401Z,38.37
2019-02-23T04:14:12.185Z,40.17
2019-02-23T04:16:45.071Z,39.50
2019-02-23T04:19:18.136Z,36.67
2019-02-23T04:21:51.321Z,38.37
2019-02-23T04:24:24.144Z,26.30
2019-02-23T04:26:57.128Z,35.23
2019-02-23T04:29:30.185Z,35.13
2019-02-23T04:32:03.075Z,36.80
2019-02-23T04:34:36.031Z,38.73
2019-02-23T04:37:08.931Z,32.77
2019-02-23T04:39:41.730Z,36.87
2019-02-23T04:42:14.726Z,35.30
2019-02-23T04:44:47.585Z,39.47
2019-02-23T04:47:20.550Z,33.63
2019-02-23T04:49:54.271Z,36.93
2019-02-23T04:52:27.269Z,34.47
2019-02-23T04:55:00.325Z,34.93
2019-02-23T04:57:33.250Z,32.23
2019-02-23T05:00:08.722Z,34.70
2019-02-23T05:02:41.697Z,37.87
2019-02-23T05:05:14.644Z,28.73
2019-02-23T05:07:47.715Z,35.13
2019-02-23T05:10:20.726Z,34.40
2019-02-23T05:12:53.910Z,35.33
2019-02-23T05:15:26.764Z,34.50
2019-02-23T05:17:59.951Z,38.37
2019-02-23T05:20:39.524Z,35.40
2019-02-23T05:23:12.537Z,33.73
2019-02-23T05:25:45.375Z,35.43
2019-02-23T05:28:18.471Z,40.70
2019-02-23T05:30:51.239Z,33.03
2019-02-23T05:33:24.184Z,28.47
2019-02-23T05:35:57.125Z,32.30
2019-02-23T05:38:29.901Z,33.17
2019-02-23T05:41:02.702Z,34.07
2019-02-23T05:43:35.814Z,33.80
2019-02-23T05:46:08.928Z,38.13
2019-02-23T05:48:41.713Z,32.50
2019-02-23T05:51:14.566Z,36.00
2019-02-23T05:53:47.595Z,32.07
2019-02-23T05:56:20.602Z,35.87
2019-02-23T05:58:53.422Z,36.53
2019-02-23T06:01:26.423Z,35.83
2019-02-23T06:03:59.192Z,36.80
2019-02-23T06:06:32.007Z,36.03
2019-02-23T06:09:05.377Z,38.90
2019-02-23T06:11:38.428Z,34.47
2019-02-23T06:14:11.419Z,36.07
2019-02-23T06:16:44.196Z,36.53
2019-02-23T06:19:18.318Z,38.03
2019-02-23T06:21:54.186Z,41.57
2019-02-23T06:24:25.927Z,34.27
2019-02-23T06:26:58.936Z,35.37
2019-02-23T06:29:31.918Z,38.40
2019-02-23T06:32:04.912Z,36.50
2019-02-23T06:34:37.793Z,34.30
2019-02-23T06:37:10.922Z,35.63
2019-02-23T06:39:43.871Z,37.80
2019-02-23T06:42:17.386Z,36.07
2019-02-23T06:44:50.252Z,38.63
2019-02-23T06:47:23.261Z,33.57
2019-02-23T06:49:56.222Z,41.40
2019-02-23T06:52:29.165Z,35.10
2019-02-23T06:55:03.426Z,36.77
2019-02-23T06:57:36.552Z,40.63
2019-02-23T07:00:12.132Z,38.40
2019-02-23T07:02:45.163Z,39.63
2019-02-23T07:05:18.013Z,40.37
2019-02-23T07:07:52.032Z,36.27
2019-02-23T07:10:25.207Z,40.20
2019-02-23T07:12:58.227Z,39.80
2019-02-23T07:15:32.103Z,39.20
2019-02-23T07:18:05.939Z,41.17
2019-02-23T07:20:44.260Z,36.43
2019-02-23T07:23:13.913Z,38.30
2019-02-23T07:25:46.894Z,39.17
2019-02-23T07:28:19.690Z,36.37
2019-02-23T07:30:52.663Z,36.33
2019-02-23T07:33:32.851Z,35.93
2019-02-23T07:36:00.523Z,30.87
2019-02-23T07:38:35.535Z,38.97
2019-02-23T07:41:08.751Z,36.90
2019-02-23T07:43:42.028Z,33.40
2019-02-23T07:46:15.186Z,35.20
2019-02-23T07:48:48.152Z,30.37
2019-02-23T07:51:27.987Z,28.10
2019-02-23T07:54:01.240Z,31.27
2019-02-23T07:56:35.151Z,31.27
2019-02-23T07:59:08.483Z,33.50
2019-02-23T08:01:41.404Z,40.07
2019-02-23T08:04:14.439Z,34.57
2019-02-23T08:06:47.604Z,35.40
2019-02-23T08:09:20.722Z,29.43
2019-02-23T08:11:53.511Z,31.63
2019-02-23T08:14:26.687Z,33.53
2019-02-23T08:16:59.552Z,31.07
2019-02-23T08:19:32.608Z,32.57
2019-02-23T08:22:05.582Z,33.47
2019-02-23T08:24:38.572Z,35.83
2019-02-23T08:27:11.868Z,36.93
2019-02-23T08:29:44.689Z,30.13
2019-02-23T08:32:17.902Z,30.27
2019-02-23T08:34:51.188Z,32.97
2019-02-23T08:37:24.342Z,31.30
2019-02-23T08:39:57.105Z,33.00
2019-02-23T08:42:30.030Z,31.70
2019-02-23T08:45:03.103Z,30.23
2019-02-23T08:47:36.202Z,33.07
2019-02-23T08:50:10.468Z,33.73
2019-02-23T08:52:49.357Z,27.97
2019-02-23T08:55:18.509Z,32.83
2019-02-23T08:57:51.710Z,31.93
2019-02-23T09:00:24.790Z,31.03
2019-02-23T09:02:57.884Z,31.23
2019-02-23T09:05:30.965Z,30.30
2019-02-23T09:08:04.073Z,30.03
2019-02-23T09:10:37.034Z,28.70
2019-02-23T09:13:09.983Z,29.70
2019-02-23T09:15:42.915Z,29.73
2019-02-23T09:18:15.773Z,29.77
2019-02-23T09:20:48.760Z,29.77
2019-02-23T09:23:22.041Z,26.43
2019-02-23T09:25:57.786Z,25.53
2019-02-23T09:28:31.138Z,28.03
2019-02-23T09:31:04.234Z,25.23
2019-02-23T09:33:37.373Z,27.77
2019-02-23T09:36:10.417Z,25.27
2019-02-23T09:38:43.489Z,26.20
2019-02-23T09:41:16.665Z,28.83
2019-02-23T09:43:49.726Z,25.70
2019-02-23T09:46:22.864Z,26.50
2019-02-23T09:48:56.460Z,27.33
2019-02-23T09:51:29.375Z,26.10
2019-02-23T09:54:02.286Z,24.23
2019-02-23T09:56:35.625Z,26.73
2019-02-23T09:59:08.681Z,27.77
2019-02-23T10:01:41.914Z,24.17
2019-02-23T10:04:15.411Z,24.17
2019-02-23T10:06:48.378Z,25.23
2019-02-23T10:09:21.240Z,24.50
2019-02-23T10:11:54.238Z,26.90
2019-02-23T10:14:27.210Z,25.80
2019-02-23T10:17:00.324Z,23.07
2019-02-23T10:19:33.521Z,23.80
2019-02-23T10:22:06.592Z,24.07
2019-02-23T10:24:39.651Z,26.87
2019-02-23T10:27:12.907Z,22.95
2019-02-23T10:29:46.015Z,23.75
2019-02-23T10:32:20.144Z,23.57
2019-02-23T10:34:53.135Z,27.82
2019-02-23T10:37:26.044Z,23.55
2019-02-23T10:39:59.060Z,24.50
2019-02-23T10:42:32.303Z,21.90
2019-02-23T10:45:06.954Z,22.50
2019-02-23T10:47:40.922Z,23.05
2019-02-23T10:50:14.557Z,19.40
2019-02-23T10:52:47.621Z,21.23
2019-02-23T10:55:21.661Z,21.97
2019-02-23T10:57:55.110Z,19.42
2019-02-23T11:00:28.246Z,20.12
2019-02-23T11:03:01.374Z,21.57
2019-02-23T11:05:34.447Z,28.05
2019-02-23T11:08:07.506Z,20.88
2019-02-23T11:10:40.764Z,22.70
2019-02-23T11:13:13.857Z,22.50
2019-02-23T11:15:47.018Z,21.05
2019-02-23T11:18:20.116Z,20.95
2019-02-23T11:20:53.041Z,18.57
2019-02-23T11:23:26.040Z,21.30
2019-02-23T11:25:59.241Z,17.07
2019-02-23T11:28:32.226Z,18.20
2019-02-23T11:31:05.266Z,17.07
2019-02-23T11:33:38.400Z,21.77
2019-02-23T11:36:11.447Z,15.65
2019-02-23T11:38:44.398Z,19.17
2019-02-23T11:41:17.467Z,20.30
2019-02-23T11:43:50.572Z,17.75
2019-02-23T11:46:24.522Z,16.15
2019-02-23T11:48:57.610Z,17.20
2019-02-23T11:51:30.663Z,16.55
2019-02-23T11:54:03.771Z,17.73
2019-02-23T11:56:36.773Z,16.10
2019-02-23T11:59:09.957Z,17.12
2019-02-23T12:01:42.781Z,16.15
2019-02-23T12:04:15.667Z,17.70
2019-02-23T12:06:48.858Z,16.20
2019-02-23T12:09:21.725Z,14.85
2019-02-23T12:11:54.562Z,12.65
2019-02-23T12:14:27.783Z,12.85
2019-02-23T12:17:00.643Z,14.90
2019-02-23T12:19:33.615Z,11.18
2019-02-23T12:22:12.396Z,11.93
2019-02-23T12:24:41.191Z,11.75
2019-02-23T12:27:14.146Z,11.83
2019-02-23T12:29:47.052Z,16.73
2019-02-23T12:32:20.288Z,12.80
2019-02-23T12:34:53.367Z,13.25
2019-02-23T12:37:26.450Z,13.15
2019-02-23T12:39:59.288Z,11.55
2019-02-23T12:42:33.266Z,14.65
2019-02-23T12:45:06.691Z,14.60
2019-02-23T12:47:40.282Z,14.47
2019-02-23T12:50:13.482Z,13.45
2019-02-23T12:52:46.522Z,12.63
2019-02-23T12:55:19.536Z,12.37
2019-02-23T12:57:52.547Z,11.55
2019-02-23T13:00:25.543Z,13.25
2019-02-23T13:02:58.591Z,13.88
2019-02-23T13:05:31.412Z,11.38
2019-02-23T13:08:04.714Z,12.82
2019-02-23T13:10:37.662Z,12.30
2019-02-23T13:13:28.642Z,11.83
2019-02-23T13:16:09.518Z,14.80
2019-02-23T13:19:27.028Z,13.32
2019-02-23T13:22:50.758Z,12.40
2019-02-23T13:26:02.707Z,9.38
2019-02-23T13:29:11.163Z,10.23
2019-02-23T13:31:56.824Z,11.63
2019-02-23T13:35:26.799Z,9.63
2019-02-23T13:38:49.358Z,13.25
2019-02-23T13:41:29.654Z,14.20
2019-02-23T13:45:03.008Z,10.65
2019-02-23T13:48:11.199Z,10.93
2019-02-23T13:51:12.840Z,10.95
2019-02-23T13:54:39.167Z,10.05
2019-02-23T13:58:04.877Z,10.48
2019-02-23T14:01:17.949Z,11.50
2019-02-23T14:04:26.632Z,11.93
2019-02-23T14:07:30.182Z,10.23
2019-02-23T14:10:30.357Z,12.23
2019-02-23T14:13:30.995Z,11.05
2019-02-23T14:16:55.503Z,10.75
2019-02-23T14:20:05.308Z,9.63
2019-02-23T14:23:10.713Z,8.33
2019-02-23T14:26:02.691Z,8.90
2019-02-23T14:29:29.639Z,10.28
2019-02-23T14:32:55.652Z,6.53
2019-02-23T14:36:00.162Z,8.30
2019-02-23T14:39:27.399Z,9.30
2019-02-23T14:42:37.974Z,9.98
2019-02-23T14:45:56.405Z,8.93
2019-02-23T14:49:06.195Z,9.78
2019-02-23T14:52:15.632Z,9.10
2019-02-23T14:55:00.937Z,9.60
2019-02-23T14:57:54.900Z,9.88
2019-02-23T15:01:05.419Z,11.15
2019-02-23T15:04:17.189Z,9.50
2019-02-23T15:07:01.701Z,8.88
2019-02-23T15:09:57.109Z,16.00
2019-02-23T15:13:12.645Z,10.90
2019-02-23T15:16:38.487Z,11.20
2019-02-23T15:19:27.055Z,10.80
2019-02-23T15:22:30.804Z,16.02
2019-02-23T15:25:34.207Z,9.43
2019-02-23T15:28:37.866Z,10.72
2019-02-23T15:31:42.991Z,10.63
2019-02-23T15:34:48.700Z,10.43
2019-02-23T15:37:35.718Z,10.23
2019-02-23T15:40:35.043Z,12.75
2019-02-23T15:44:02.293Z,11.80
2019-02-23T15:46:59.490Z,11.43
2019-02-23T15:49:34.323Z,14.78
2019-02-23T15:52:07.695Z,10.90
2019-02-23T15:54:40.915Z,11.40
2019-02-23T15:57:13.913Z,12.55
2019-02-23T15:59:46.760Z,11.83
2019-02-23T16:02:19.925Z,11.83
2019-02-23T16:04:53.021Z,15.65
2019-02-23T16:07:26.181Z,12.00
2019-02-23T16:09:59.278Z,15.23
2019-02-23T16:12:32.365Z,12.53
2019-02-23T16:15:06.736Z,16.42
2019-02-23T16:17:39.785Z,13.53
2019-02-23T16:20:12.706Z,28.25
2019-02-23T16:22:45.501Z,17.87
2019-02-23T16:25:19.517Z,11.48
2019-02-23T16:27:52.580Z,13.18
2019-02-23T16:30:25.660Z,11.83
2019-02-23T16:32:58.955Z,14.95
2019-02-23T16:35:31.897Z,12.93
2019-02-23T16:38:04.756Z,13.13
2019-02-23T16:40:37.771Z,13.72
2019-02-23T16:43:10.755Z,18.87
2019-02-23T16:45:45.062Z,11.83
2019-02-23T16:48:18.071Z,13.20
2019-02-23T16:50:51.214Z,13.32
2019-02-23T16:53:24.125Z,15.95
2019-02-23T16:55:57.377Z,12.63
2019-02-23T16:58:31.296Z,48.23
2019-02-23T17:01:04.509Z,26.77
2019-02-23T17:03:37.520Z,18.53
2019-02-23T17:06:10.802Z,16.53
2019-02-23T17:08:43.963Z,16.23
2019-02-23T17:11:17.112Z,16.07
2019-02-23T17:13:50.038Z,15.77
2019-02-23T17:16:23.296Z,16.23
2019-02-23T17:18:56.664Z,16.93
2019-02-23T17:21:29.958Z,15.73
2019-02-23T17:24:03.001Z,15.73
2019-02-23T17:26:36.937Z,19.93
2019-02-23T17:29:10.250Z,15.93
2019-02-23T17:31:43.465Z,16.53
2019-02-23T17:34:16.466Z,15.83
2019-02-23T17:36:49.427Z,15.70
2019-02-23T17:39:22.786Z,20.40
2019-02-23T17:41:57.680Z,17.57
2019-02-23T17:44:30.983Z,17.37
2019-02-23T17:47:04.001Z,17.93
2019-02-23T17:49:37.160Z,17.20
2019-02-23T17:52:10.308Z,19.80
2019-02-23T17:54:43.377Z,18.17
2019-02-23T17:57:16.280Z,18.27
2019-02-23T17:59:49.560Z,19.17
2019-02-23T18:02:22.832Z,19.87
2019-02-23T18:04:55.757Z,25.80
2019-02-23T18:07:28.662Z,21.07
2019-02-23T18:10:01.588Z,19.77
2019-02-23T18:12:34.887Z,15.53
2019-02-23T18:15:08.061Z,19.53
2019-02-23T18:17:41.232Z,18.20
2019-02-23T18:20:14.167Z,18.93
2019-02-23T18:22:47.157Z,17.57
2019-02-23T18:25:20.213Z,18.23
2019-02-23T18:27:53.475Z,21.13
2019-02-23T18:30:26.383Z,21.10
2019-02-23T18:32:59.598Z,19.67
2019-02-23T18:35:32.611Z,21.63
2019-02-23T18:38:05.613Z,17.97
2019-02-23T18:40:38.662Z,19.70
2019-02-23T18:43:11.673Z,26.77
2019-02-23T18:45:47.595Z,21.77
2019-02-23T18:48:20.969Z,22.33
2019-02-23T18:50:53.908Z,22.20
2019-02-23T18:53:26.803Z,22.23
2019-02-23T18:56:19.101Z,24.23
2019-02-23T18:58:52.180Z,21.53
2019-02-23T19:01:24.927Z,21.63
2019-02-23T19:03:58.373Z,22.13
2019-02-23T19:06:31.522Z,20.93
2019-02-23T19:09:05.424Z,22.00
2019-02-23T19:11:40.250Z,23.73
2019-02-23T19:14:13.511Z,20.53
2019-02-23T19:16:46.703Z,19.17
2019-02-23T19:19:19.826Z,60.47
2019-02-23T19:21:53.123Z,22.57
2019-02-23T19:24:26.726Z,20.27
2019-02-23T19:26:59.725Z,34.07
2019-02-23T19:29:32.502Z,23.90
2019-02-23T19:32:05.550Z,22.87
2019-02-23T19:34:38.506Z,23.93
2019-02-23T19:37:11.506Z,41.20
2019-02-23T19:39:44.660Z,25.77
2019-02-23T19:42:18.643Z,24.60
2019-02-23T19:44:52.104Z,26.07
2019-02-23T19:47:29.597Z,26.10
2019-02-23T19:50:14.454Z,21.80
2019-02-23T19:52:47.251Z,23.13
2019-02-23T19:55:20.327Z,25.23
2019-02-23T19:57:53.307Z,23.07
2019-02-23T20:00:26.178Z,21.10
2019-02-23T20:02:59.446Z,24.27
2019-02-23T20:05:32.572Z,23.43
2019-02-23T20:08:05.739Z,24.53
2019-02-23T20:10:39.271Z,22.17
2019-02-23T20:13:12.068Z,34.27
2019-02-23T20:15:45.695Z,23.73
2019-02-23T20:18:18.721Z,21.20
2019-02-23T20:20:51.592Z,22.70
2019-02-23T20:23:24.518Z,25.60
2019-02-23T20:25:57.492Z,24.70
2019-02-23T20:28:31.604Z,23.73
2019-02-23T20:31:04.455Z,22.83
2019-02-23T20:33:37.488Z,21.67
2019-02-23T20:36:10.632Z,25.40
2019-02-23T20:38:43.670Z,20.57
2019-02-23T20:41:16.545Z,22.07
2019-02-23T20:43:49.665Z,24.17
2019-02-23T20:46:22.690Z,44.47
2019-02-23T20:48:55.600Z,19.40
2019-02-23T20:51:28.756Z,26.03
2019-02-23T20:54:01.888Z,21.53
2019-02-23T20:56:34.952Z,21.63
2019-02-23T20:59:08.003Z,25.83
2019-02-23T21:01:40.873Z,22.27
2019-02-23T21:04:13.895Z,27.80
2019-02-23T21:06:46.815Z,22.10
2019-02-23T21:09:19.749Z,23.07
2019-02-23T21:11:52.923Z,21.93
2019-02-23T21:14:25.713Z,22.43
2019-02-23T21:16:58.662Z,29.90
2019-02-23T21:19:31.755Z,26.63
2019-02-23T21:22:04.459Z,21.83
2019-02-23T21:24:38.350Z,21.77
2019-02-23T21:27:13.217Z,20.17
2019-02-23T21:29:46.475Z,21.43
2019-02-23T21:32:19.444Z,22.87
2019-02-23T21:34:52.488Z,30.87
2019-02-23T21:37:25.321Z,25.80
2019-02-23T21:39:58.139Z,23.80
2019-02-23T21:42:32.131Z,20.83
2019-02-23T21:45:05.100Z,24.50
2019-02-23T21:47:38.584Z,22.03
2019-02-23T21:50:13.385Z,21.27
2019-02-23T21:52:47.496Z,21.20
2019-02-23T21:55:20.644Z,24.07
2019-02-23T21:57:54.076Z,19.33
2019-02-23T22:00:27.131Z,21.20
2019-02-23T22:03:00.097Z,20.10
2019-02-23T22:05:32.990Z,21.70
2019-02-23T22:08:05.946Z,19.27
2019-02-23T22:10:39.054Z,21.37
2019-02-23T22:13:12.114Z,25.30
2019-02-23T22:15:45.191Z,24.07
2019-02-23T22:18:18.227Z,22.40
2019-02-23T22:20:50.977Z,24.47
2019-02-23T22:23:23.867Z,23.90
2019-02-23T22:25:57.069Z,21.10
2019-02-23T22:28:29.974Z,17.87
2019-02-23T22:31:03.110Z,21.40
2019-02-23T22:33:36.573Z,23.07
2019-02-23T22:36:09.577Z,21.93
2019-02-23T22:38:42.555Z,20.20
2019-02-23T22:41:15.683Z,18.37
2019-02-23T22:43:48.899Z,23.80
2019-02-23T22:46:21.911Z,21.90
2019-02-23T22:48:55.126Z,19.20
2019-02-23T22:51:27.980Z,22.53
2019-02-23T22:54:01.756Z,19.80
2019-02-23T22:56:34.775Z,20.40
2019-02-23T22:59:07.595Z,20.23
2019-02-23T23:01:40.995Z,20.07
2019-02-23T23:04:16.015Z,20.10
2019-02-23T23:06:48.940Z,19.37
2019-02-23T23:09:22.070Z,19.37
2019-02-23T23:11:54.995Z,22.67
2019-02-23T23:14:27.796Z,23.40
2019-02-23T23:17:00.782Z,18.93
2019-02-23T23:19:33.985Z,17.33
2019-02-23T23:22:06.935Z,19.50
2019-02-23T23:24:40.058Z,20.73
2019-02-23T23:27:13.126Z,17.57
2019-02-23T23:29:46.065Z,19.87
2019-02-23T23:32:19.155Z,21.17
2019-02-23T23:34:52.110Z,20.83
2019-02-23T23:37:24.975Z,18.33
2019-02-23T23:39:57.936Z,19.10
2019-02-23T23:42:30.877Z,20.70
2019-02-23T23:45:04.052Z,21.03
2019-02-23T23:47:36.999Z,21.37
2019-02-23T23:50:09.981Z,20.93
2019-02-23T23:52:43.049Z,21.60
2019-02-23T23:55:16.173Z,20.43
2019-02-23T23:57:57.830Z,19.97
